Time;durP1;ratioP1;P1;durP2;ratioP2;P2;SDS_P1;SDS_P2;PMS_P1;PMS_P2;Temp;Humidity;BMP_temperature;BMP_pressure;BME280_temperature;BME280_humidity;BME280_pressure;Samples;Min_cycle;Max_cycle;Signal;HPM_P1;HPM_P2
2023/01/02 00:01:17;;;;;;;5.78;3.10;;;9.20;99.90;;;;;;7403612;19;19918;-71
2023/01/02 00:03:46;;;;;;;3.92;2.70;;;8.80;99.90;;;;;;7403679;19;19946;-71
2023/01/02 00:06:16;;;;;;;8.77;3.65;;;8.90;99.90;;;;;;7402439;19;19935;-71
2023/01/02 00:08:45;;;;;;;6.63;4.40;;;8.90;99.90;;;;;;7403742;19;19918;-71
2023/01/02 00:11:14;;;;;;;9.00;4.38;;;8.80;99.90;;;;;;7403311;19;19974;-71
2023/01/02 00:13:46;;;;;;;9.73;4.20;;;8.90;99.90;;;;;;7405785;19;19922;-71
2023/01/02 00:16:15;;;;;;;7.55;4.30;;;8.90;99.90;;;;;;7403507;19;19919;-71
2023/01/02 00:18:44;;;;;;;8.90;5.18;;;8.80;99.90;;;;;;7403172;19;19918;-71
2023/01/02 00:21:24;;;;;;;9.10;4.63;;;8.80;99.90;;;;;;7403509;19;20253;-71
2023/01/02 00:23:52;;;;;;;7.50;4.63;;;8.90;99.90;;;;;;7403062;19;19981;-71
2023/01/02 00:26:21;;;;;;;9.35;5.60;;;8.90;99.90;;;;;;7402408;19;19922;-71
2023/01/02 00:28:53;;;;;;;9.27;5.07;;;8.90;99.90;;;;;;7409378;19;19939;-71
2023/01/02 00:31:22;;;;;;;10.60;5.60;;;8.90;99.90;;;;;;7409747;19;19914;-71
2023/01/02 00:33:51;;;;;;;10.30;6.03;;;8.90;99.90;;;;;;7408867;19;19917;-71
2023/01/02 00:36:20;;;;;;;8.85;5.65;;;8.90;99.90;;;;;;7409742;19;19923;-71
2023/01/02 00:38:49;;;;;;;8.30;5.93;;;8.90;99.90;;;;;;7409409;19;19914;-71
2023/01/02 00:41:20;;;;;;;14.13;6.25;;;8.90;99.90;;;;;;7407329;19;19919;-70
2023/01/02 00:43:49;;;;;;;10.93;5.90;;;8.80;99.90;;;;;;7412916;19;19923;-70
2023/01/02 00:46:20;;;;;;;11.63;6.22;;;8.90;99.90;;;;;;7407141;19;19985;-71
2023/01/02 00:48:49;;;;;;;9.95;5.50;;;8.90;99.90;;;;;;7409105;19;19978;-71
2023/01/02 00:51:19;;;;;;;10.25;5.70;;;8.90;99.90;;;;;;7408684;19;19918;-71
2023/01/02 00:53:48;;;;;;;8.90;5.85;;;9.10;99.90;;;;;;7408803;19;19918;-71
2023/01/02 00:56:17;;;;;;;13.95;6.22;;;9.00;99.90;;;;;;7409452;19;19915;-71
2023/01/02 00:58:46;;;;;;;9.43;5.25;;;9.10;99.90;;;;;;7408598;19;19913;-71
2023/01/02 01:01:15;;;;;;;11.63;6.40;;;8.90;99.90;;;;;;7408687;19;19925;-71
2023/01/02 01:03:48;;;;;;;12.13;6.65;;;9.00;99.90;;;;;;7408947;19;19910;-71
2023/01/02 01:06:17;;;;;;;14.00;7.40;;;9.00;99.90;;;;;;7406731;19;19986;-71
2023/01/02 01:08:46;;;;;;;11.02;6.07;;;9.00;99.90;;;;;;7408419;19;19915;-71
2023/01/02 01:11:17;;;;;;;15.25;6.05;;;9.00;99.90;;;;;;7409216;19;19918;-71
2023/01/02 01:13:46;;;;;;;13.55;7.60;;;9.00;99.90;;;;;;7408498;19;19918;-70
2023/01/02 01:16:17;;;;;;;13.30;6.63;;;9.10;99.90;;;;;;7408070;19;19915;-71
2023/01/02 01:18:49;;;;;;;12.30;6.85;;;9.00;99.90;;;;;;7408969;19;19986;-71
2023/01/02 01:21:21;;;;;;;15.95;6.68;;;9.00;99.90;;;;;;7408497;19;19923;-71
2023/01/02 01:23:52;;;;;;;11.32;6.57;;;9.10;99.90;;;;;;7407984;19;19925;-71
2023/01/02 01:26:22;;;;;;;15.00;6.82;;;9.00;99.90;;;;;;7406572;19;19937;-71
2023/01/02 01:28:53;;;;;;;11.25;6.80;;;9.10;99.90;;;;;;7408012;19;20485;-71
2023/01/02 01:31:23;;;;;;;15.30;7.15;;;8.90;99.90;;;;;;7408415;19;19937;-71
2023/01/02 01:33:55;;;;;;;14.63;7.43;;;8.90;99.90;;;;;;7407139;19;19921;-71
2023/01/02 01:36:26;;;;;;;11.35;7.35;;;9.00;99.90;;;;;;7407780;19;20011;-71
2023/01/02 01:38:55;;;;;;;14.70;7.90;;;9.00;99.90;;;;;;7406307;19;19915;-70
2023/01/02 01:41:26;;;;;;;18.50;7.90;;;9.00;99.90;;;;;;7408372;19;19932;-71
2023/01/02 01:43:57;;;;;;;13.07;8.18;;;9.00;99.90;;;;;;7406835;19;19922;-70
2023/01/02 01:46:30;;;;;;;16.10;8.65;;;9.00;99.90;;;;;;7405947;19;19921;-71
2023/01/02 01:49:07;;;;;;;16.05;8.98;;;9.00;99.90;;;;;;7407302;19;19938;-71
2023/01/02 01:51:44;;;;;;;17.58;9.02;;;9.10;99.90;;;;;;7407296;19;19918;-70
2023/01/02 01:54:23;;;;;;;15.40;8.20;;;9.10;99.90;;;;;;7407287;19;19923;-71
2023/01/02 01:56:57;;;;;;;18.42;8.95;;;9.10;99.90;;;;;;7407526;19;19917;-71
2023/01/02 01:59:29;;;;;;;14.35;7.80;;;9.10;99.90;;;;;;7407159;19;20364;-71
2023/01/02 02:01:59;;;;;;;16.65;8.88;;;9.20;99.90;;;;;;7406617;19;19978;-71
2023/01/02 02:04:31;;;;;;;17.75;8.70;;;9.30;99.90;;;;;;7406778;19;19946;-71
2023/01/02 02:07:00;;;;;;;18.90;8.88;;;9.20;99.90;;;;;;7405288;19;19918;-71
2023/01/02 02:09:36;;;;;;;14.00;8.30;;;9.30;99.90;;;;;;7406702;19;19914;-72
2023/01/02 02:12:07;;;;;;;17.38;8.70;;;9.20;99.90;;;;;;7407896;19;19923;-71
2023/01/02 02:14:36;;;;;;;14.93;8.20;;;9.30;99.90;;;;;;7406414;19;20067;-71
2023/01/02 02:17:13;;;;;;;14.88;8.35;;;9.10;99.90;;;;;;7406813;19;19918;-71
2023/01/02 02:20:07;;;;;;;16.02;8.40;;;9.20;99.90;;;;;;7406539;19;19914;-71
2023/01/02 02:23:06;;;;;;;17.35;8.50;;;9.30;99.90;;;;;;7405419;19;19929;-71
2023/01/02 02:26:13;;;;;;;14.93;7.63;;;9.30;99.90;;;;;;7406296;19;19942;-70
2023/01/02 02:29:30;;;;;;;16.15;8.38;;;9.40;99.90;;;;;;7406266;19;20245;-70
2023/01/02 02:32:12;;;;;;;13.60;8.00;;;9.30;99.90;;;;;;7403371;19;19914;-70
2023/01/02 02:34:48;;;;;;;15.75;7.10;;;9.30;99.90;;;;;;7406117;19;19919;-70
2023/01/02 02:37:25;;;;;;;13.25;7.00;;;9.30;99.90;;;;;;7406116;19;19914;-70
2023/01/02 02:40:03;;;;;;;12.60;7.40;;;9.50;99.90;;;;;;7408628;19;19929;-71
2023/01/02 02:42:43;;;;;;;15.48;8.38;;;9.40;99.90;;;;;;7404410;19;19922;-70
2023/01/02 02:45:18;;;;;;;13.07;7.22;;;9.40;99.90;;;;;;7404282;19;20333;-70
2023/01/02 02:47:57;;;;;;;14.20;7.25;;;9.40;99.90;;;;;;7406376;19;19978;-70
2023/01/02 02:50:33;;;;;;;15.32;6.35;;;9.40;99.90;;;;;;7405865;19;19922;-71
2023/01/02 02:53:08;;;;;;;17.42;6.68;;;9.50;99.90;;;;;;7405672;19;19918;-70
2023/01/02 02:55:43;;;;;;;15.05;6.78;;;9.50;99.90;;;;;;7405653;19;19970;-71
2023/01/02 02:58:14;;;;;;;10.75;6.20;;;9.50;99.90;;;;;;7405602;19;19970;-70
2023/01/02 03:00:43;;;;;;;15.20;6.75;;;9.50;99.90;;;;;;7405322;19;19915;-70
2023/01/02 03:03:21;;;;;;;13.25;5.80;;;9.60;99.90;;;;;;7404828;19;19946;-70
2023/01/02 03:06:04;;;;;;;9.95;6.00;;;9.60;99.90;;;;;;7405505;19;19923;-70
2023/01/02 03:08:43;;;;;;;13.55;6.10;;;9.50;99.90;;;;;;7405791;19;19927;-70
2023/01/02 03:11:13;;;;;;;12.77;6.15;;;9.60;99.90;;;;;;7407306;19;19926;-70
2023/01/02 03:13:53;;;;;;;12.88;5.93;;;9.70;99.90;;;;;;7405368;19;20003;-70
2023/01/02 03:16:28;;;;;;;11.48;6.65;;;9.50;99.90;;;;;;7405318;19;19925;-70
2023/01/02 03:19:04;;;;;;;15.38;5.65;;;9.60;99.90;;;;;;7405476;19;19910;-71
2023/01/02 03:21:44;;;;;;;13.88;5.78;;;9.70;99.90;;;;;;7404739;19;19923;-71
2023/01/02 03:24:15;;;;;;;11.10;5.68;;;9.70;99.90;;;;;;7404929;19;19911;-70
2023/01/02 03:26:52;;;;;;;11.18;5.65;;;9.70;99.90;;;;;;7403864;19;19915;-70
2023/01/02 03:29:25;;;;;;;12.00;5.43;;;9.70;99.90;;;;;;7405119;19;19922;-70
2023/01/02 03:31:57;;;;;;;14.00;5.88;;;9.70;99.90;;;;;;7405219;19;19993;-70
2023/01/02 03:34:32;;;;;;;14.63;6.00;;;9.60;99.90;;;;;;7404384;19;19918;-70
2023/01/02 03:37:07;;;;;;;13.38;6.13;;;9.70;99.90;;;;;;7404920;19;19911;-71
2023/01/02 03:39:41;;;;;;;13.93;6.43;;;9.60;99.90;;;;;;7404286;19;19918;-70
2023/01/02 03:42:14;;;;;;;13.00;5.88;;;9.60;99.90;;;;;;7403505;19;20346;-71
2023/01/02 03:44:49;;;;;;;12.38;5.93;;;9.60;99.90;;;;;;7403125;19;19914;-71
2023/01/02 03:47:28;;;;;;;14.30;5.63;;;9.80;99.90;;;;;;7403105;19;20256;-71
2023/01/02 03:50:05;;;;;;;13.18;5.03;;;9.70;99.90;;;;;;7403669;19;19918;-71
2023/01/02 03:52:34;;;;;;;9.48;4.75;;;9.60;99.90;;;;;;7403744;19;19914;-71
2023/01/02 03:55:04;;;;;;;11.60;5.82;;;9.70;99.90;;;;;;7404035;19;19937;-71
2023/01/02 03:57:40;;;;;;;8.20;4.25;;;9.70;99.90;;;;;;7404105;19;19914;-71
2023/01/02 04:00:12;;;;;;;12.40;5.38;;;9.70;99.90;;;;;;7403570;19;19921;-70
2023/01/02 04:02:47;;;;;;;8.20;4.53;;;9.70;99.90;;;;;;7402950;19;19925;-71
2023/01/02 04:05:24;;;;;;;10.77;5.13;;;9.70;99.90;;;;;;7404018;19;19940;-71
2023/01/02 04:08:00;;;;;;;12.18;4.90;;;9.80;99.90;;;;;;7402616;19;19938;-71
2023/01/02 04:10:31;;;;;;;10.90;4.88;;;9.70;99.90;;;;;;7405002;19;19918;-71
2023/01/02 04:13:04;;;;;;;13.23;5.55;;;9.80;99.90;;;;;;7403404;19;19911;-71
2023/01/02 04:15:35;;;;;;;9.13;5.25;;;9.70;99.90;;;;;;7403258;19;19911;-71
2023/01/02 04:18:10;;;;;;;11.10;5.30;;;9.70;99.90;;;;;;7403152;19;19926;-71
2023/01/02 04:20:44;;;;;;;11.02;4.82;;;8.50;99.90;;;;;;7403570;19;20006;-71
2023/01/02 04:23:18;;;;;;;12.00;5.22;;;9.70;99.90;;;;;;7403248;19;19919;-71
2023/01/02 04:25:49;;;;;;;12.40;4.88;;;9.70;99.90;;;;;;7403228;19;19943;-71
2023/01/02 04:28:24;;;;;;;8.95;4.65;;;9.60;99.90;;;;;;7401104;19;20012;-71
2023/01/02 04:30:57;;;;;;;13.65;5.40;;;9.70;99.90;;;;;;7402765;19;19923;-71
2023/01/02 04:33:27;;;;;;;12.23;5.75;;;9.90;99.90;;;;;;7402374;19;19921;-70
2023/01/02 04:35:59;;;;;;;10.70;5.07;;;9.80;99.90;;;;;;7405319;19;19921;-70
2023/01/02 04:38:28;;;;;;;9.82;5.70;;;9.70;99.90;;;;;;7402916;19;19979;-71
2023/01/02 04:40:57;;;;;;;13.32;5.55;;;9.60;99.90;;;;;;7402375;19;19933;-71
2023/01/02 04:43:26;;;;;;;12.65;5.82;;;9.70;99.90;;;;;;7402425;19;20268;-71
2023/01/02 04:45:59;;;;;;;11.05;5.10;;;9.60;99.90;;;;;;7402070;19;19921;-71
2023/01/02 04:48:35;;;;;;;14.57;5.60;;;9.70;99.90;;;;;;7402162;19;20393;-71
2023/01/02 04:51:07;;;;;;;12.07;4.95;;;9.60;99.90;;;;;;7401918;19;19921;-71
2023/01/02 04:53:36;;;;;;;10.23;5.43;;;9.70;99.90;;;;;;7402256;19;19927;-71
2023/01/02 04:56:08;;;;;;;13.18;5.60;;;9.80;99.90;;;;;;7402179;19;20347;-71
2023/01/02 04:58:37;;;;;;;9.98;4.82;;;9.70;99.90;;;;;;7401993;19;19942;-71
2023/01/02 05:01:10;;;;;;;11.40;4.28;;;9.70;99.90;;;;;;7402278;19;19910;-70
2023/01/02 05:03:41;;;;;;;9.25;4.57;;;9.70;99.90;;;;;;7401341;19;19919;-70
2023/01/02 05:06:15;;;;;;;12.10;4.47;;;9.70;99.90;;;;;;7401354;19;20293;-70
2023/01/02 05:08:45;;;;;;;9.32;4.57;;;9.80;99.90;;;;;;7402089;19;19917;-70
2023/01/02 05:11:16;;;;;;;9.32;4.85;;;9.80;99.90;;;;;;7405763;19;20451;-70
2023/01/02 05:13:45;;;;;;;10.18;4.82;;;9.80;99.90;;;;;;7403810;19;19915;-70
2023/01/02 05:16:14;;;;;;;13.77;4.55;;;9.80;99.90;;;;;;7408304;19;20329;-70
2023/01/02 05:18:43;;;;;;;9.20;4.70;;;9.80;99.90;;;;;;7408616;19;19914;-71
2023/01/02 05:23:58;;;;;;;11.93;4.25;;;9.80;99.90;;;;;;7408196;19;19915;-70
2023/01/02 05:26:27;;;;;;;14.90;4.55;;;9.80;99.90;;;;;;7407757;19;19918;-71
2023/01/02 05:29:16;;;;;;;9.63;4.75;;;9.80;99.90;;;;;;7406381;19;19922;-70
2023/01/02 05:32:05;;;;;;;10.65;4.00;;;9.80;99.90;;;;;;7406539;19;19917;-71
2023/01/02 05:34:54;;;;;;;8.93;4.47;;;9.80;99.90;;;;;;7406046;19;19922;-71
2023/01/02 05:37:46;;;;;;;9.80;4.30;;;9.90;99.90;;;;;;7407846;19;19915;-71
2023/01/02 05:40:35;;;;;;;9.55;4.55;;;9.90;99.90;;;;;;7405534;19;19942;-71
2023/01/02 05:43:24;;;;;;;8.80;4.70;;;10.00;99.90;;;;;;7406008;19;19915;-71
2023/01/02 05:45:54;;;;;;;10.93;4.22;;;9.90;99.90;;;;;;7407885;19;19935;-71
2023/01/02 05:48:23;;;;;;;9.05;4.13;;;10.00;99.90;;;;;;7406042;19;19915;-71
2023/01/02 05:50:52;;;;;;;7.45;4.25;;;10.00;99.90;;;;;;7407483;19;19918;-71
2023/01/02 05:53:23;;;;;;;8.38;4.57;;;9.90;99.90;;;;;;7407059;19;19924;-71
2023/01/02 05:55:52;;;;;;;9.25;4.10;;;10.00;99.90;;;;;;7407404;19;19932;-71
2023/01/02 05:58:21;;;;;;;7.38;4.07;;;10.10;99.90;;;;;;7407730;19;20324;-71
2023/01/02 06:00:50;;;;;;;11.20;4.03;;;10.20;99.90;;;;;;7406846;19;19918;-71
2023/01/02 06:03:19;;;;;;;17.08;4.32;;;10.10;99.90;;;;;;7406537;19;19919;-71
2023/01/02 06:05:48;;;;;;;6.72;3.92;;;10.10;99.90;;;;;;7407362;19;19967;-71
2023/01/02 06:08:30;;;;;;;10.82;3.80;;;9.90;99.90;;;;;;7405733;19;20339;-71
2023/01/02 06:10:59;;;;;;;10.93;4.13;;;10.00;99.90;;;;;;7406864;19;19974;-71
2023/01/02 06:13:29;;;;;;;9.18;4.63;;;10.20;99.90;;;;;;7407084;19;20345;-71
2023/01/02 06:15:58;;;;;;;10.40;3.88;;;10.10;99.90;;;;;;7406791;19;19918;-72
2023/01/02 06:18:28;;;;;;;10.00;4.60;;;10.00;99.90;;;;;;7406901;19;19945;-72
2023/01/02 06:21:00;;;;;;;9.57;4.10;;;10.00;99.90;;;;;;7406514;19;19938;-71
2023/01/02 06:23:32;;;;;;;6.95;4.18;;;10.10;99.90;;;;;;7406517;19;19974;-71
2023/01/02 06:26:16;;;;;;;8.75;4.75;;;10.10;99.90;;;;;;7406337;19;19918;-70
2023/01/02 06:28:45;;;;;;;7.63;4.22;;;10.00;99.90;;;;;;7403662;19;19925;-71
2023/01/02 06:31:16;;;;;;;10.93;4.05;;;10.10;99.90;;;;;;7407116;19;19925;-71
2023/01/02 06:33:46;;;;;;;8.65;3.83;;;10.00;99.90;;;;;;7406062;19;19931;-71
2023/01/02 06:36:17;;;;;;;8.18;3.85;;;10.00;99.90;;;;;;7406581;19;19922;-71
2023/01/02 06:38:49;;;;;;;9.48;4.07;;;10.10;99.90;;;;;;7408867;19;20296;-71
2023/01/02 06:41:18;;;;;;;7.25;3.78;;;10.00;99.90;;;;;;7405952;19;20282;-71
2023/01/02 06:43:49;;;;;;;12.85;3.72;;;10.10;99.90;;;;;;7404960;19;19925;-71
2023/01/02 06:46:20;;;;;;;7.68;3.80;;;10.00;99.90;;;;;;7405891;19;19919;-71
2023/01/02 06:48:49;;;;;;;9.60;4.07;;;10.10;99.90;;;;;;7403751;19;19922;-69
2023/01/02 06:51:25;;;;;;;8.63;4.22;;;11.40;99.90;;;;;;7406320;19;19922;-70
2023/01/02 06:53:56;;;;;;;7.80;3.42;;;10.10;99.90;;;;;;7405411;19;19911;-70
2023/01/02 06:56:25;;;;;;;;;;;10.20;99.90;;;;;;7408149;19;19939;-70
2023/01/02 06:58:54;;;;;;;6.60;3.15;;;10.10;99.90;;;;;;7405261;19;19922;-70
2023/01/02 07:01:24;;;;;;;8.88;3.42;;;10.20;99.90;;;;;;7405956;19;19922;-70
2023/01/02 07:03:54;;;;;;;6.13;2.80;;;10.20;99.90;;;;;;7404952;19;20336;-71
2023/01/02 07:06:26;;;;;;;6.93;3.28;;;10.20;99.90;;;;;;7405772;19;20254;-71
2023/01/02 07:09:00;;;;;;;5.20;2.53;;;10.20;99.90;;;;;;7403603;19;19923;-71
2023/01/02 07:11:29;;;;;;;6.60;2.58;;;10.10;99.90;;;;;;7405024;19;20311;-71
2023/01/02 07:13:58;;;;;;;5.43;3.08;;;10.20;99.90;;;;;;7405514;19;19918;-71
2023/01/02 07:16:27;;;;;;;4.45;2.10;;;10.10;99.90;;;;;;7403108;19;19922;-71
2023/01/02 07:18:56;;;;;;;5.65;2.20;;;10.10;99.90;;;;;;7404622;19;19946;-71
2023/01/02 07:21:25;;;;;;;5.43;2.22;;;10.20;99.90;;;;;;7404808;19;20264;-71
2023/01/02 07:23:54;;;;;;;3.47;2.22;;;10.20;99.90;;;;;;7405415;19;19914;-72
2023/01/02 07:26:26;;;;;;;6.40;2.35;;;10.10;99.90;;;;;;7405319;19;20356;-71
2023/01/02 07:28:55;;;;;;;5.70;2.17;;;10.20;99.90;;;;;;7403408;19;20005;-71
2023/01/02 07:31:25;;;;;;;8.55;2.58;;;10.20;99.90;;;;;;7404348;19;19934;-71
2023/01/02 07:33:54;;;;;;;6.70;2.50;;;10.10;99.90;;;;;;7404208;19;19974;-71
2023/01/02 07:36:29;;;;;;;4.03;2.17;;;10.20;99.90;;;;;;7403011;19;19919;-71
2023/01/02 07:38:58;;;;;;;2.08;1.70;;;10.30;99.90;;;;;;7404710;19;19915;-71
2023/01/02 07:41:30;;;;;;;4.18;0.90;;;10.60;99.90;;;;;;7403748;19;19919;-71
2023/01/02 07:43:59;;;;;;;2.60;1.00;;;10.10;99.90;;;;;;7403377;19;19919;-71
2023/01/02 07:46:28;;;;;;;2.15;1.17;;;9.90;99.90;;;;;;7404703;19;19914;-70
2023/01/02 07:48:57;;;;;;;1.35;1.08;;;10.10;99.90;;;;;;7402723;19;20329;-71
2023/01/02 07:51:25;;;;;;;1.10;0.85;;;10.00;99.90;;;;;;7403948;19;19918;-71
2023/01/02 07:53:54;;;;;;;2.70;1.10;;;10.00;99.90;;;;;;7403686;19;19929;-71
2023/01/02 07:56:23;;;;;;;5.28;1.35;;;10.00;99.90;;;;;;7403932;19;19940;-71
2023/01/02 07:58:55;;;;;;;2.25;1.00;;;9.90;99.90;;;;;;7403523;19;19935;-71
2023/01/02 08:01:24;;;;;;;2.80;1.23;;;9.80;99.90;;;;;;7404231;19;20291;-71
2023/01/02 08:03:53;;;;;;;1.30;1.10;;;9.70;99.90;;;;;;7403151;19;19991;-72
2023/01/02 08:06:22;;;;;;;2.17;1.25;;;9.80;99.90;;;;;;7403430;19;19926;-71
2023/01/02 08:08:51;;;;;;;2.05;1.33;;;9.60;99.90;;;;;;7404691;19;19932;-71
2023/01/02 08:11:23;;;;;;;2.60;1.88;;;9.30;99.90;;;;;;7403660;19;20337;-70
2023/01/02 08:13:55;;;;;;;3.13;1.30;;;9.20;99.90;;;;;;7403614;19;19917;-71
2023/01/02 08:16:24;;;;;;;2.70;2.03;;;8.90;99.90;;;;;;7403307;19;19914;-71
2023/01/02 08:18:55;;;;;;;2.80;1.40;;;8.90;99.90;;;;;;7403380;19;19918;-71
2023/01/02 08:21:24;;;;;;;2.42;1.20;;;8.70;99.90;;;;;;7402553;19;19918;-71
2023/01/02 08:23:53;;;;;;;2.17;1.05;;;8.60;99.90;;;;;;7402986;19;20333;-71
2023/01/02 08:26:23;;;;;;;1.10;0.80;;;8.60;99.90;;;;;;7402909;19;19915;-71
2023/01/02 08:28:57;;;;;;;1.30;0.80;;;8.50;99.90;;;;;;7401978;19;19935;-72
2023/01/02 08:31:26;;;;;;;1.50;0.85;;;8.30;99.90;;;;;;7403212;19;19938;-72
2023/01/02 08:33:55;;;;;;;1.15;0.40;;;8.40;99.90;;;;;;7401986;19;19929;-71
2023/01/02 08:36:24;;;;;;;1.33;0.85;;;8.20;99.90;;;;;;7406665;19;19982;-71
2023/01/02 08:38:53;;;;;;;0.90;0.60;;;8.00;99.90;;;;;;7402461;19;19918;-71
2023/01/02 08:41:35;;;;;;;0.93;0.50;;;8.10;99.90;;;;;;7402047;19;20302;-71
2023/01/02 08:44:07;;;;;;;1.15;0.73;;;8.00;99.90;;;;;;7401705;19;19915;-71
2023/01/02 08:46:39;;;;;;;1.05;0.80;;;7.70;99.90;;;;;;7401119;19;19914;-71
2023/01/02 08:49:08;;;;;;;1.73;1.00;;;7.80;99.90;;;;;;7406167;19;19924;-71
2023/01/02 08:51:37;;;;;;;1.95;1.73;;;7.70;99.90;;;;;;7408997;19;20340;-71
2023/01/02 08:54:06;;;;;;;2.15;1.17;;;7.60;99.90;;;;;;7409240;19;19919;-71
2023/01/02 08:56:36;;;;;;;2.65;1.52;;;7.60;99.90;;;;;;7408812;19;20247;-71
2023/01/02 08:59:10;;;;;;;1.73;0.73;;;7.50;99.90;;;;;;7408654;19;19915;-71
2023/01/02 09:01:39;;;;;;;2.17;1.15;;;7.40;99.90;;;;;;7408686;19;19922;-72
2023/01/02 09:04:09;;;;;;;1.33;1.05;;;7.50;99.90;;;;;;7408234;19;19917;-70
2023/01/02 09:06:39;;;;;;;0.82;0.63;;;7.60;99.90;;;;;;7409797;19;19986;-70
2023/01/02 09:09:08;;;;;;;1.00;0.70;;;7.60;99.90;;;;;;7409002;19;19925;-71
2023/01/02 09:11:41;;;;;;;3.38;0.77;;;7.60;99.90;;;;;;7408617;19;19927;-71
2023/01/02 09:14:13;;;;;;;0.90;0.50;;;7.50;99.90;;;;;;7408109;19;20247;-71
2023/01/02 09:16:42;;;;;;;2.72;0.73;;;7.40;99.90;;;;;;7408351;19;19966;-71
2023/01/02 09:19:11;;;;;;;0.63;0.55;;;7.50;99.90;;;;;;7408262;19;19986;-71
2023/01/02 09:21:39;;;;;;;10.38;1.55;;;7.40;99.90;;;;;;7407831;19;19919;-72
2023/01/02 09:24:10;;;;;;;1.90;0.80;;;7.40;99.90;;;;;;7407871;19;19929;-71
2023/01/02 09:26:40;;;;;;;1.73;0.77;;;7.50;99.90;;;;;;7407743;19;20255;-71
2023/01/02 09:29:09;;;;;;;0.52;0.38;;;7.60;99.90;;;;;;7406002;19;19918;-71
2023/01/02 09:31:41;;;;;;;2.30;0.55;;;7.40;99.90;;;;;;7408206;19;19915;-71
2023/01/02 09:34:10;;;;;;;;;;;7.50;99.90;;;;;;7409636;19;19921;-71
2023/01/02 09:36:39;;;;;;;1.05;0.50;;;7.40;99.90;;;;;;7410480;19;19926;-71
2023/01/02 09:39:08;;;;;;;2.25;0.80;;;7.40;99.90;;;;;;7407863;19;19928;-71
2023/01/02 09:41:38;;;;;;;0.68;0.60;;;8.10;99.90;;;;;;7406425;19;19927;-70
2023/01/02 09:44:14;;;;;;;1.58;0.80;;;7.40;99.90;;;;;;7406550;19;20332;-71
2023/01/02 09:46:52;;;;;;;2.10;0.63;;;7.50;99.90;;;;;;7407226;19;20412;-70
2023/01/02 09:49:24;;;;;;;4.82;0.93;;;7.50;99.90;;;;;;7405575;19;19918;-71
2023/01/02 09:51:53;;;;;;;1.23;0.73;;;7.50;99.90;;;;;;7407044;19;19921;-71
2023/01/02 09:54:26;;;;;;;1.05;0.70;;;7.50;99.90;;;;;;7405328;19;19921;-71
2023/01/02 09:57:06;;;;;;;1.10;0.80;;;7.60;99.90;;;;;;7407481;19;19917;-71
2023/01/02 09:59:42;;;;;;;1.88;0.70;;;7.70;99.90;;;;;;7405706;19;19932;-72
2023/01/02 10:02:29;;;;;;;0.90;0.70;;;7.50;99.90;;;;;;7406458;19;19914;-71
2023/01/02 10:05:23;;;;;;;4.05;0.90;;;7.50;99.90;;;;;;7406878;19;19935;-71
2023/01/02 10:08:03;;;;;;;0.73;0.73;;;7.50;99.90;;;;;;7406125;19;20345;-72
2023/01/02 10:10:39;;;;;;;2.33;0.90;;;7.60;99.90;;;;;;7406293;19;19931;-71
2023/01/02 10:13:13;;;;;;;1.73;0.70;;;7.60;99.90;;;;;;7406300;19;19922;-72
2023/01/02 10:15:47;;;;;;;3.05;0.80;;;7.60;99.90;;;;;;7406388;19;19915;-71
2023/01/02 10:18:23;;;;;;;1.75;0.52;;;7.60;99.90;;;;;;7406110;19;20417;-72
2023/01/02 10:20:57;;;;;;;2.85;0.70;;;7.70;99.90;;;;;;7404856;19;19972;-71
2023/01/02 10:23:30;;;;;;;2.03;0.40;;;7.90;99.90;;;;;;7406582;19;19954;-71
2023/01/02 10:26:04;;;;;;;2.00;0.40;;;7.80;99.90;;;;;;7406873;19;20297;-71
2023/01/02 10:28:41;;;;;;;1.48;0.40;;;7.60;99.90;;;;;;7406249;19;19914;-71
2023/01/02 10:31:17;;;;;;;1.02;0.70;;;7.70;99.90;;;;;;7406557;19;19915;-71
2023/01/02 10:33:54;;;;;;;2.40;0.60;;;7.70;99.90;;;;;;7405489;19;20337;-71
2023/01/02 10:36:26;;;;;;;2.08;0.60;;;7.70;99.90;;;;;;7408243;19;20340;-71
2023/01/02 10:38:58;;;;;;;1.13;0.65;;;7.60;99.90;;;;;;7405613;19;19926;-71
2023/01/02 10:41:27;;;;;;;2.17;0.80;;;7.70;99.90;;;;;;7405063;19;19919;-72
2023/01/02 10:43:59;;;;;;;1.13;0.70;;;7.70;99.90;;;;;;7405407;19;20294;-70
2023/01/02 10:46:31;;;;;;;1.52;0.52;;;7.80;99.90;;;;;;7405663;19;20029;-71
2023/01/02 10:49:04;;;;;;;1.15;0.60;;;7.80;99.90;;;;;;7404701;19;19918;-70
2023/01/02 10:51:33;;;;;;;2.05;0.85;;;7.80;99.90;;;;;;7405584;19;19978;-71
2023/01/02 10:54:05;;;;;;;2.13;0.60;;;7.70;99.90;;;;;;7405331;19;19922;-71
2023/01/02 10:56:38;;;;;;;1.00;0.45;;;7.60;99.90;;;;;;7405521;19;19918;-70
2023/01/02 10:59:21;;;;;;;2.42;1.00;;;7.60;99.90;;;;;;7405883;19;19911;-71
2023/01/02 11:01:55;;;;;;;1.92;0.80;;;7.60;99.90;;;;;;7405628;19;19919;-70
2023/01/02 11:04:30;;;;;;;2.10;0.90;;;7.60;99.90;;;;;;7407532;19;19974;-70
2023/01/02 11:07:00;;;;;;;0.77;0.65;;;7.60;99.90;;;;;;7405712;19;19929;-71
2023/01/02 11:09:31;;;;;;;1.70;0.75;;;7.50;99.90;;;;;;7404020;19;19923;-72
2023/01/02 11:12:03;;;;;;;2.13;0.95;;;7.50;99.90;;;;;;7402294;19;20345;-72
2023/01/02 11:14:34;;;;;;;2.55;0.80;;;7.20;99.90;;;;;;7404738;19;19921;-72
2023/01/02 11:17:09;;;;;;;1.45;0.80;;;7.50;99.90;;;;;;7405085;19;19918;-71
2023/01/02 11:19:47;;;;;;;1.05;0.50;;;7.50;99.90;;;;;;7405020;19;19911;-72
2023/01/02 11:22:19;;;;;;;0.73;0.52;;;7.30;99.90;;;;;;7405164;19;19930;-73
2023/01/02 11:25:00;;;;;;;0.93;0.55;;;7.40;99.90;;;;;;7405380;19;19950;-72
2023/01/02 11:27:33;;;;;;;1.70;0.73;;;7.30;99.90;;;;;;7404962;19;19927;-71
2023/01/02 11:30:03;;;;;;;2.42;0.90;;;7.40;99.90;;;;;;7403425;19;19914;-71
2023/01/02 11:32:39;;;;;;;1.77;0.90;;;7.70;99.90;;;;;;7404329;19;19911;-71
2023/01/02 11:35:33;;;;;;;3.65;0.90;;;7.50;99.90;;;;;;7405996;19;19919;-71
2023/01/02 11:38:03;;;;;;;1.48;0.90;;;7.50;99.90;;;;;;7404236;19;19918;-71
2023/01/02 11:40:33;;;;;;;1.45;0.50;;;7.40;99.90;;;;;;7403997;19;19914;-71
2023/01/02 11:45:50;;;;;;;3.45;0.63;;;8.40;99.90;;;;;;7403900;19;19926;-72
2023/01/02 11:48:22;;;;;;;1.27;0.63;;;7.50;99.90;;;;;;7404050;19;19914;-71
2023/01/02 11:50:55;;;;;;;2.25;0.63;;;7.60;99.90;;;;;;7403682;19;19974;-71
2023/01/02 11:53:30;;;;;;;1.80;0.88;;;7.60;99.90;;;;;;7404341;19;19974;-72
2023/01/02 11:56:07;;;;;;;4.00;1.60;;;7.70;99.90;;;;;;7403979;19;19914;-71
2023/01/02 11:58:42;;;;;;;5.05;2.80;;;7.70;99.90;;;;;;7404016;19;20268;-71
2023/01/02 12:01:19;;;;;;;6.50;4.32;;;7.70;99.90;;;;;;7403396;19;19914;-71
2023/01/02 12:03:48;;;;;;;6.72;3.80;;;7.70;99.90;;;;;;7405270;19;19990;-71
2023/01/02 12:06:22;;;;;;;7.95;4.20;;;7.70;99.90;;;;;;7403381;19;19911;-71
2023/01/02 12:09:05;;;;;;;10.23;4.05;;;7.70;99.90;;;;;;7402942;19;20301;-71
2023/01/02 12:11:54;;;;;;;5.35;2.00;;;7.60;99.90;;;;;;7403698;19;19919;-71
2023/01/02 12:14:25;;;;;;;3.58;1.10;;;7.80;99.90;;;;;;7403015;19;19914;-71
2023/01/02 12:16:58;;;;;;;1.35;0.70;;;7.80;99.90;;;;;;7402909;19;19911;-71
2023/01/02 12:19:51;;;;;;;2.70;0.88;;;7.80;99.90;;;;;;7402884;19;19921;-71
2023/01/02 12:22:44;;;;;;;2.47;0.68;;;7.80;99.90;;;;;;7401737;19;19990;-71
2023/01/02 12:25:34;;;;;;;2.03;0.70;;;7.80;99.90;;;;;;7403005;19;19922;-71
2023/01/02 12:28:16;;;;;;;2.65;0.70;;;7.80;99.90;;;;;;7403457;19;19919;-72
2023/01/02 12:30:56;;;;;;;2.33;0.80;;;8.00;99.90;;;;;;7401417;19;19944;-71
2023/01/02 12:33:40;;;;;;;2.25;1.02;;;7.90;99.90;;;;;;7403611;19;20279;-71
2023/01/02 12:36:32;;;;;;;1.83;0.80;;;8.00;99.90;;;;;;7402938;19;19962;-72
2023/01/02 12:39:35;;;;;;;1.83;0.73;;;7.90;99.90;;;;;;7402484;19;19914;-72
2023/01/02 12:42:15;;;;;;;2.45;1.08;;;7.90;99.90;;;;;;7400500;19;19927;-71
2023/01/02 12:44:52;;;;;;;2.22;0.80;;;7.90;99.90;;;;;;7401539;19;20360;-72
2023/01/02 12:47:26;;;;;;;;;;;7.80;99.90;;;;;;7403191;19;20222;-71
2023/01/02 12:50:15;;;;;;;5.43;2.55;;;7.70;99.90;;;;;;7401008;19;19914;-72
2023/01/02 12:52:55;;;;;;;7.22;3.05;;;7.80;99.90;;;;;;7402305;19;19919;-72
2023/01/02 12:55:40;;;;;;;9.77;4.22;;;7.60;99.90;;;;;;7401953;19;20448;-71
2023/01/02 12:58:18;;;;;;;8.07;4.13;;;7.60;99.90;;;;;;7401881;19;19917;-72
2023/01/02 13:01:05;;;;;;;6.03;1.85;;;7.60;99.90;;;;;;7402247;19;19918;-71
2023/01/02 13:03:54;;;;;;;3.13;1.38;;;7.70;99.90;;;;;;7402503;19;19914;-72
2023/01/02 13:06:26;;;;;;;;;;;7.80;99.90;;;;;;7404407;19;20424;-71
2023/01/02 13:09:00;;;;;;;7.47;2.00;;;7.70;99.90;;;;;;7401759;19;19922;-71
2023/01/02 13:11:38;;;;;;;12.00;1.85;;;7.70;99.90;;;;;;7401908;19;19946;-71
2023/01/02 13:14:09;;;;;;;5.28;1.08;;;7.80;99.90;;;;;;7401161;19;19922;-72
2023/01/02 13:16:40;;;;;;;3.63;1.02;;;7.70;99.90;;;;;;7401429;19;20337;-71
2023/01/02 13:19:20;;;;;;;5.28;1.13;;;7.90;99.90;;;;;;7401039;19;19919;-72
2023/01/02 13:21:53;;;;;;;4.75;0.80;;;7.70;99.90;;;;;;7400871;19;19915;-72
2023/01/02 13:24:25;;;;;;;3.00;0.80;;;7.80;99.90;;;;;;7401002;19;19952;-71
2023/01/02 13:26:59;;;;;;;5.20;0.80;;;7.90;99.90;;;;;;7401485;19;19929;-71
2023/01/02 13:29:31;;;;;;;2.78;0.90;;;7.70;99.90;;;;;;7400699;19;20353;-71
2023/01/02 13:32:00;;;;;;;3.63;0.90;;;7.90;99.90;;;;;;7403240;19;20336;-72